Bannister, Michigan
Current Conditions -  °F | °C
As of 2:54 AM on Tuesday 21 Oct 2014 (Local Time) from KRNP Reporting Station
Overcast Overcast  
Wind Chill: 44°   Ceiling: 1900
Heat Index: 47°   Visibility: 10mi
Dew Point: 44°   Wind: 7mph
Humidity: 87%   Direction: 310°NW
Pressure: 29.91"   Gusts: NA
Location:  43.13°N, 84.42°W
Report Text: KRNP 210654Z AUTO 31006KT 10SM BKN019 OVC025 09/07 A2991 RMK AO2 T00860065
Loading
Personal Weather Stations






























Interactive Weather Map
Tropical Storm Tracking
New forecast layout! Learn more

10-Day Weather Forecast

Advertisements
Track Severe Weather on mobile